Time;durP1;ratioP1;P1;durP2;ratioP2;P2;SDS_P1;SDS_P2;PMS_P1;PMS_P2;Temp;Humidity;BMP_temperature;BMP_pressure;BME280_temperature;BME280_humidity;BME280_pressure;Samples;Min_cycle;Max_cycle;Signal;HPM_P1;HPM_P2
2023/08/17 00:01:31;;;;;;;3.50;2.80;;;;;;;19.72;100.00;100227.42;105995;1271;61165;-75
2023/08/17 00:03:58;;;;;;;3.30;3.00;;;;;;;19.72;100.00;100227.98;105664;1268;61278;-75
2023/08/17 00:06:25;;;;;;;3.10;2.90;;;;;;;19.72;100.00;100228.51;104938;1271;74483;-74
2023/08/17 00:08:52;;;;;;;3.90;2.80;;;;;;;19.72;100.00;100227.41;105714;1270;69753;-75
2023/08/17 00:11:19;;;;;;;3.20;2.80;;;;;;;19.73;100.00;100229.17;105368;1271;72447;-75
2023/08/17 00:13:45;;;;;;;3.80;3.00;;;;;;;19.72;100.00;100223.55;105306;1269;62091;-75
2023/08/17 00:16:12;;;;;;;3.10;2.70;;;;;;;19.70;100.00;100225.23;105329;1270;61278;-75
2023/08/17 00:18:39;;;;;;;3.80;2.70;;;;;;;19.66;100.00;100224.17;105336;1271;74506;-75
2023/08/17 00:21:06;;;;;;;3.10;2.80;;;;;;;19.64;100.00;100225.77;104964;1271;71009;-74
2023/08/17 00:23:32;;;;;;;3.60;2.80;;;;;;;19.60;100.00;100227.95;104967;1269;72519;-75
2023/08/17 00:25:59;;;;;;;2.70;2.40;;;;;;;19.55;100.00;100224.33;106037;1271;61296;-75
2023/08/17 00:28:26;;;;;;;3.80;3.50;;;;;;;19.50;100.00;100230.86;105550;1271;61248;-75
2023/08/17 00:30:53;;;;;;;3.00;2.80;;;;;;;19.47;100.00;100239.07;105105;1269;74543;-75
2023/08/17 00:33:19;;;;;;;3.70;2.50;;;;;;;19.44;100.00;100239.27;105890;1268;60185;-75
2023/08/17 00:35:46;;;;;;;2.90;2.70;;;;;;;19.40;100.00;100243.09;105296;1273;72530;-75
2023/08/17 00:38:13;;;;;;;3.00;2.80;;;;;;;19.36;100.00;100244.55;106134;1267;61150;-75
2023/08/17 00:40:40;;;;;;;3.20;2.80;;;;;;;19.30;100.00;100242.71;105772;1269;61188;-75
2023/08/17 00:43:07;;;;;;;3.90;3.00;;;;;;;19.26;100.00;100242.44;105578;1270;61336;-75
2023/08/17 00:45:33;;;;;;;3.70;2.80;;;;;;;19.24;100.00;100239.53;105634;1269;71278;-75
2023/08/17 00:48:00;;;;;;;3.20;3.00;;;;;;;19.21;100.00;100238.46;105662;1271;72692;-75
2023/08/17 00:50:27;;;;;;;5.40;2.90;;;;;;;19.18;100.00;100236.89;105669;1267;61382;-75
2023/08/17 00:52:54;;;;;;;4.40;2.90;;;;;;;19.14;100.00;100237.44;105679;1272;61306;-75
2023/08/17 00:55:21;;;;;;;5.30;3.00;;;;;;;19.11;100.00;100239.26;105350;1269;73184;-75
2023/08/17 00:57:48;;;;;;;4.80;2.70;;;;;;;19.07;100.00;100240.34;105703;1267;71007;-75
2023/08/17 01:00:15;;;;;;;2.80;2.60;;;;;;;19.05;100.00;100240.84;105200;1271;71778;-74
2023/08/17 01:02:46;;;;;;;4.40;2.70;;;;;;;19.02;100.00;100237.82;105706;1271;61356;-75
2023/08/17 01:05:15;;;;;;;3.30;3.00;;;;;;;18.99;100.00;100239.05;105283;1267;1003043;-75
2023/08/17 01:07:42;;;;;;;2.60;2.30;;;;;;;18.96;100.00;100240.99;105006;1271;74461;-74
2023/08/17 01:10:09;;;;;;;3.40;3.00;;;;;;;18.93;100.00;100238.83;105310;1271;71717;-75
2023/08/17 01:12:42;;;;;;;2.90;2.70;;;;;;;18.89;100.00;100234.96;104950;1267;73132;-75
2023/08/17 01:15:14;;;;;;;2.50;2.30;;;;;;;18.85;100.00;100237.52;105532;1270;61859;-75
2023/08/17 01:17:50;;;;;;;3.10;2.60;;;;;;;18.82;100.00;100243.58;105937;1267;61135;-75
2023/08/17 01:20:18;;;;;;;2.80;2.60;;;;;;;18.78;100.00;100246.81;105087;1272;74491;-74
2023/08/17 01:22:45;;;;;;;3.10;2.90;;;;;;;18.73;100.00;100244.91;105611;1271;70976;-75
2023/08/17 01:25:12;;;;;;;5.50;3.20;;;;;;;18.70;100.00;100247.94;105300;1273;72529;-75
2023/08/17 01:27:43;;;;;;;6.10;2.70;;;;;;;18.68;100.00;100247.73;105712;1268;62154;-74
2023/08/17 01:30:11;;;;;;;3.30;3.10;;;;;;;18.65;100.00;100248.77;105347;1269;61216;-76
2023/08/17 01:32:49;;;;;;;6.70;3.10;;;;;;;18.63;100.00;100245.90;105182;1267;74764;-75
2023/08/17 01:35:32;;;;;;;3.70;3.30;;;;;;;18.60;100.00;100249.98;105809;1267;71050;-75
2023/08/17 01:38:03;;;;;;;4.40;3.10;;;;;;;18.56;100.00;100250.67;106044;1271;72741;-75
2023/08/17 01:40:32;;;;;;;3.10;2.90;;;;;;;18.53;100.00;100252.98;105642;1271;61875;-75
2023/08/17 01:42:58;;;;;;;8.80;3.40;;;;;;;18.52;100.00;100253.23;105792;1267;61384;-75
2023/08/17 01:45:25;;;;;;;5.30;2.70;;;;;;;18.51;100.00;100251.16;105207;1274;74621;-74
2023/08/17 01:47:52;;;;;;;3.70;2.80;;;;;;;18.49;100.00;100250.02;104664;1271;1002480;-75
2023/08/17 01:50:18;;;;;;;5.90;3.10;;;;;;;18.47;100.00;100249.40;105774;1271;73037;-74
2023/08/17 01:52:45;;;;;;;3.10;2.80;;;;;;;18.45;100.00;100245.99;105715;1271;61241;-74
2023/08/17 01:55:12;;;;;;;2.70;2.50;;;;;;;18.42;100.00;100248.09;105388;1271;61242;-74
2023/08/17 01:57:39;;;;;;;4.70;2.90;;;;;;;18.39;100.00;100243.63;105317;1271;74372;-74
2023/08/17 02:00:07;;;;;;;4.50;2.50;;;;;;;18.38;100.00;100249.93;105250;1269;71037;-75
2023/08/17 02:02:40;;;;;;;;;;;;;;;18.35;100.00;100248.67;105335;1271;73064;-75
2023/08/17 02:05:07;;;;;;;2.90;2.60;;;;;;;18.32;100.00;100251.50;105294;1269;61278;-75
2023/08/17 02:07:34;;;;;;;2.60;2.30;;;;;;;18.29;100.00;100255.41;105610;1267;60500;-75
2023/08/17 02:10:01;;;;;;;3.20;2.80;;;;;;;18.25;100.00;100252.58;105723;1267;74346;-75
2023/08/17 02:12:28;;;;;;;3.00;2.80;;;;;;;18.21;100.00;100255.79;105295;1271;71135;-74
2023/08/17 02:14:54;;;;;;;4.20;2.60;;;;;;;18.19;100.00;100254.16;104991;1273;72565;-75
2023/08/17 02:17:22;;;;;;;5.30;2.80;;;;;;;18.16;100.00;100255.89;105379;1267;61205;-75
2023/08/17 02:19:49;;;;;;;2.90;2.70;;;;;;;18.14;100.00;100259.04;105618;1267;61337;-75
2023/08/17 02:22:16;;;;;;;6.30;2.90;;;;;;;18.11;100.00;100259.02;105747;1271;74165;-77
2023/08/17 02:24:42;;;;;;;2.80;2.60;;;;;;;18.08;100.00;100260.27;105613;1267;70039;-75
2023/08/17 02:27:09;;;;;;;2.70;2.50;;;;;;;18.06;100.00;100263.21;105725;1267;70962;-74
2023/08/17 02:29:36;;;;;;;4.70;2.50;;;;;;;18.04;100.00;100261.16;104943;1271;61382;-75
2023/08/17 02:32:03;;;;;;;2.90;2.60;;;;;;;18.03;100.00;100261.58;105262;1272;61860;-74
2023/08/17 02:34:31;;;;;;;5.60;3.10;;;;;;;18.01;100.00;100259.70;105682;1267;74825;-75
2023/08/17 02:36:57;;;;;;;8.20;3.60;;;;;;;18.01;100.00;100260.79;105606;1267;71133;-75
2023/08/17 02:39:24;;;;;;;2.90;2.50;;;;;;;18.00;100.00;100262.44;105601;1270;72533;-75
2023/08/17 02:41:51;;;;;;;3.50;2.70;;;;;;;17.99;100.00;100263.56;105675;1267;61763;-75
2023/08/17 02:44:17;;;;;;;3.80;2.80;;;;;;;17.99;100.00;100266.59;105315;1271;61390;-74
2023/08/17 02:46:44;;;;;;;3.00;2.80;;;;;;;17.99;100.00;100272.97;105327;1267;76000;-74
2023/08/17 02:49:11;;;;;;;2.70;2.50;;;;;;;18.00;100.00;100269.90;105397;1273;71112;-75
2023/08/17 02:51:38;;;;;;;2.90;2.50;;;;;;;18.01;100.00;100269.70;105908;1267;72548;-75
2023/08/17 02:54:05;;;;;;;3.70;2.70;;;;;;;18.01;100.00;100270.35;105738;1268;61201;-75
2023/08/17 02:56:31;;;;;;;2.90;2.60;;;;;;;18.02;100.00;100272.61;105323;1267;61399;-76
2023/08/17 02:58:58;;;;;;;5.30;2.90;;;;;;;18.03;100.00;100270.64;105365;1268;74518;-75
2023/08/17 03:01:25;;;;;;;4.30;3.10;;;;;;;18.03;100.00;100270.79;105300;1271;71122;-74
2023/08/17 03:03:51;;;;;;;2.80;2.60;;;;;;;18.03;100.00;100273.11;105893;1267;72657;-75
2023/08/17 03:06:18;;;;;;;4.00;2.70;;;;;;;18.03;100.00;100271.18;105544;1267;61475;-75
2023/08/17 03:08:45;;;;;;;5.00;2.90;;;;;;;18.03;100.00;100275.59;104992;1271;61218;-75
2023/08/17 03:11:11;;;;;;;3.00;2.70;;;;;;;18.05;100.00;100277.83;105361;1272;73248;-74
2023/08/17 03:13:38;;;;;;;3.30;3.00;;;;;;;18.07;100.00;100278.96;105629;1267;61323;-74
2023/08/17 03:16:05;;;;;;;3.20;2.50;;;;;;;18.09;100.00;100279.00;105387;1267;72614;-75
2023/08/17 03:18:31;;;;;;;6.60;2.70;;;;;;;18.12;100.00;100282.25;105659;1272;61071;-75
2023/08/17 03:20:59;;;;;;;6.80;2.90;;;;;;;18.15;100.00;100282.25;106059;1269;59163;-75
2023/08/17 03:23:26;;;;;;;3.20;2.70;;;;;;;18.17;100.00;100278.91;105771;1267;74455;-76
2023/08/17 03:25:53;;;;;;;2.80;2.60;;;;;;;18.20;100.00;100283.55;105037;1267;71296;-75
2023/08/17 03:28:20;;;;;;;5.20;2.70;;;;;;;18.24;100.00;100281.59;105231;1267;71516;-74
2023/08/17 03:30:47;;;;;;;19.40;3.20;;;;;;;18.27;100.00;100285.20;104921;1274;61246;-75
2023/08/17 03:33:14;;;;;;;8.70;2.90;;;;;;;18.29;100.00;100284.16;105490;1272;60312;-75
2023/08/17 03:35:41;;;;;;;3.20;3.00;;;;;;;18.32;100.00;100287.74;105755;1267;74374;-75
2023/08/17 03:38:08;;;;;;;3.90;3.60;;;;;;;18.35;100.00;100283.66;105249;1267;70822;-74
2023/08/17 03:40:36;;;;;;;4.00;3.60;;;;;;;18.40;100.00;100284.64;105763;1267;72716;-75
2023/08/17 03:43:03;;;;;;;5.50;2.90;;;;;;;18.45;100.00;100280.29;105751;1267;61198;-75
2023/08/17 03:45:30;;;;;;;5.40;3.30;;;;;;;18.50;100.00;100281.23;105982;1271;61322;-75
2023/08/17 03:47:57;;;;;;;5.60;4.10;;;;;;;18.56;100.00;100283.40;105260;1273;73233;-75
2023/08/17 03:50:28;;;;;;;6.80;3.70;;;;;;;18.63;100.00;100286.95;105013;1267;61395;-74
2023/08/17 03:52:55;;;;;;;3.60;3.10;;;;;;;18.68;100.00;100282.52;105148;1267;72780;-74
2023/08/17 03:55:21;;;;;;;5.70;3.70;;;;;;;18.74;100.00;100279.70;106260;1267;61200;-74
2023/08/17 03:57:48;;;;;;;7.60;4.20;;;;;;;18.80;100.00;100280.45;105061;1273;61268;-75
2023/08/17 04:00:15;;;;;;;12.40;5.40;;;;;;;18.87;100.00;100283.64;105297;1272;74678;-74
2023/08/17 04:02:42;;;;;;;7.10;4.40;;;;;;;18.93;100.00;100283.27;105372;1271;71181;-76
2023/08/17 04:05:11;;;;;;;12.70;4.80;;;;;;;19.01;100.00;100284.79;105729;1267;72530;-75
2023/08/17 04:07:42;;;;;;;12.10;4.50;;;;;;;19.09;100.00;100289.32;104928;1267;61299;-76
2023/08/17 04:10:09;;;;;;;7.70;4.60;;;;;;;19.16;100.00;100285.90;105507;1267;61301;-75
2023/08/17 04:12:36;;;;;;;15.00;4.90;;;;;;;19.23;100.00;100290.10;105403;1268;74484;-76
2023/08/17 04:15:03;;;;;;;7.00;4.50;;;;;;;19.31;100.00;100287.50;105419;1267;71044;-75
2023/08/17 04:17:31;;;;;;;6.40;4.50;;;;;;;19.39;100.00;100289.70;105004;1272;72593;-75
2023/08/17 04:19:58;;;;;;;11.10;5.20;;;;;;;19.48;100.00;100289.21;105258;1268;61957;-75
2023/08/17 04:22:25;;;;;;;15.30;5.80;;;;;;;19.55;100.00;100288.09;105500;1267;61334;-75
2023/08/17 04:24:52;;;;;;;13.10;6.60;;;;;;;19.61;100.00;100289.98;105917;1271;75209;-74
2023/08/17 04:27:18;;;;;;;12.00;6.00;;;;;;;19.69;100.00;100292.02;105231;1273;71174;-76
2023/08/17 04:29:46;;;;;;;13.60;5.50;;;;;;;19.77;100.00;100291.77;105285;1267;72748;-75
2023/08/17 04:32:16;;;;;;;17.30;6.10;;;;;;;19.84;100.00;100296.33;105658;1272;61490;-74
2023/08/17 04:34:44;;;;;;;10.80;5.40;;;;;;;19.91;100.00;100294.33;105900;1267;61372;-75
2023/08/17 04:37:14;;;;;;;11.20;5.20;;;;;;;19.97;100.00;100293.91;105369;1267;74683;-74
2023/08/17 04:39:43;;;;;;;13.20;5.20;;;;;;;20.04;100.00;100291.52;105263;1268;70937;-75
2023/08/17 04:42:10;;;;;;;13.90;4.90;;;;;;;20.13;100.00;100290.64;105851;1267;72994;-75
2023/08/17 04:44:37;;;;;;;12.90;4.10;;;;;;;20.21;100.00;100287.30;105637;1267;61316;-75
2023/08/17 04:47:05;;;;;;;12.90;3.70;;;;;;;20.29;100.00;100288.77;105773;1267;61199;-76
2023/08/17 04:49:32;;;;;;;15.30;3.80;;;;;;;20.36;100.00;100285.60;105687;1268;73979;-75
2023/08/17 04:51:59;;;;;;;9.20;3.50;;;;;;;20.44;100.00;100284.77;105245;1271;71045;-75
2023/08/17 04:54:27;;;;;;;12.00;3.90;;;;;;;20.52;100.00;100279.45;105479;1267;72579;-74
2023/08/17 04:56:54;;;;;;;8.50;3.80;;;;;;;20.61;100.00;100277.27;105855;1267;61142;-75
2023/08/17 04:59:20;;;;;;;8.40;3.20;;;;;;;20.70;100.00;100273.52;105802;1271;61235;-76
2023/08/17 05:01:47;;;;;;;6.60;3.70;;;;;;;20.80;100.00;100271.08;105740;1267;74513;-76
2023/08/17 05:04:14;;;;;;;13.90;3.70;;;;;;;20.90;100.00;100273.27;105548;1267;70865;-75
2023/08/17 05:06:42;;;;;;;9.90;3.00;;;;;;;20.99;100.00;100273.77;105377;1271;72636;-75
2023/08/17 05:09:09;;;;;;;6.50;3.00;;;;;;;21.08;100.00;100271.40;106013;1268;61347;-75
2023/08/17 05:11:36;;;;;;;6.20;3.20;;;;;;;21.17;100.00;100274.19;105756;1267;61185;-75
2023/08/17 05:14:03;;;;;;;10.00;3.20;;;;;;;21.25;100.00;100271.33;105019;1271;75086;-76
2023/08/17 05:16:30;;;;;;;3.30;2.60;;;;;;;21.34;100.00;100267.17;105830;1267;70060;-75
2023/08/17 05:18:58;;;;;;;7.60;2.90;;;;;;;21.43;100.00;100265.66;104899;1273;70519;-75
2023/08/17 05:21:25;;;;;;;9.00;2.40;;;;;;;21.52;100.00;100263.67;104981;1273;61387;-75
2023/08/17 05:23:52;;;;;;;7.80;3.00;;;;;;;21.61;100.00;100260.38;105690;1269;61216;-74
2023/08/17 05:26:19;;;;;;;6.70;2.80;;;;;;;21.71;100.00;100254.73;105332;1267;73168;-76
2023/08/17 05:28:46;;;;;;;4.90;2.70;;;;;;;21.79;100.00;100256.61;105788;1267;71616;-75
2023/08/17 05:31:13;;;;;;;7.20;3.20;;;;;;;21.89;100.00;100251.66;104912;1272;72641;-75
2023/08/17 05:33:42;;;;;;;5.10;2.40;;;;;;;21.98;100.00;100249.77;105838;1270;61287;-75
2023/08/17 05:36:09;;;;;;;3.60;2.50;;;;;;;22.08;100.00;100251.40;105342;1267;61395;-75
2023/08/17 05:38:36;;;;;;;6.30;2.90;;;;;;;22.16;100.00;100247.58;105703;1267;74493;-76
2023/08/17 05:41:03;;;;;;;5.80;2.30;;;;;;;22.24;100.00;100242.90;105364;1267;70934;-75
2023/08/17 05:43:29;;;;;;;4.80;2.40;;;;;;;22.32;100.00;100237.37;106085;1267;72600;-74
2023/08/17 05:45:59;;;;;;;3.90;2.10;;;;;;;22.41;100.00;100233.67;105685;1267;61276;-75
2023/08/17 05:48:26;;;;;;;7.60;3.10;;;;;;;22.50;100.00;100235.02;105767;1267;61168;-74
2023/08/17 05:50:54;;;;;;;5.70;2.30;;;;;;;22.57;100.00;100234.27;105726;1270;74072;-74
2023/08/17 05:53:21;;;;;;;8.20;2.30;;;;;;;22.65;100.00;100235.85;105228;1273;69906;-75
2023/08/17 05:55:48;;;;;;;5.90;2.00;;;;;;;22.74;100.00;100234.35;105755;1267;72803;-74
2023/08/17 05:58:15;;;;;;;4.50;2.10;;;;;;;22.82;100.00;100232.45;105046;1267;61417;-74
2023/08/17 06:00:42;;;;;;;11.20;2.10;;;;;;;22.90;100.00;100230.94;105375;1267;61299;-75
2023/08/17 06:03:09;;;;;;;10.20;2.70;;;;;;;22.99;100.00;100228.92;105691;1271;74828;-75
2023/08/17 06:05:35;;;;;;;10.10;2.30;;;;;;;23.07;100.00;100229.38;105719;1267;71121;-76
2023/08/17 06:08:02;;;;;;;3.70;2.30;;;;;;;23.17;100.00;100228.84;105386;1271;72569;-75
2023/08/17 06:10:29;;;;;;;8.00;2.00;;;;;;;23.26;100.00;100227.63;106176;1267;61506;-75
2023/08/17 06:12:57;;;;;;;6.90;2.00;;;;;;;23.33;100.00;100225.08;104945;1267;61470;-75
2023/08/17 06:15:24;;;;;;;6.00;1.90;;;;;;;23.41;100.00;100226.30;105401;1271;74461;-76
2023/08/17 06:17:51;;;;;;;4.40;2.10;;;;;;;23.49;100.00;100222.23;105666;1267;69755;-75
2023/08/17 06:20:18;;;;;;;3.30;1.70;;;;;;;23.57;100.00;100224.16;105442;1267;72342;-76
2023/08/17 06:22:45;;;;;;;2.40;1.70;;;;;;;23.65;100.00;100224.02;105006;1267;61374;-75
2023/08/17 06:25:12;;;;;;;5.80;1.80;;;;;;;23.75;100.00;100221.65;105351;1267;61270;-75
2023/08/17 06:27:41;;;;;;;5.10;1.60;;;;;;;23.85;100.00;100218.77;105150;1271;74514;-75
2023/08/17 06:30:08;;;;;;;5.00;1.60;;;;;;;23.93;100.00;100216.90;106389;1267;69751;-76
2023/08/17 06:32:35;;;;;;;2.70;2.00;;;;;;;24.03;100.00;100218.79;105695;1267;72692;-76
2023/08/17 06:35:02;;;;;;;7.50;1.90;;;;;;;24.11;100.00;100222.27;105674;1267;61257;-75
2023/08/17 06:37:29;;;;;;;8.90;1.60;;;;;;;24.19;100.00;100214.81;105415;1271;61384;-76
2023/08/17 06:39:56;;;;;;;5.80;1.90;;;;;;;24.26;100.00;100214.39;105488;1267;74428;-76
2023/08/17 06:42:23;;;;;;;8.70;1.70;;;;;;;24.35;100.00;100218.33;105354;1268;70383;-75
2023/08/17 06:44:50;;;;;;;5.30;2.00;;;;;;;24.45;100.00;100218.11;105332;1271;71476;-76
2023/08/17 06:47:16;;;;;;;5.50;2.40;;;;;;;24.55;100.00;100219.96;105029;1267;61320;-76
2023/08/17 06:49:43;;;;;;;5.90;2.20;;;;;;;24.65;100.00;100216.84;105271;1267;61347;-76
2023/08/17 06:52:10;;;;;;;9.40;2.70;;;;;;;24.76;100.00;100217.94;105555;1267;74383;-74
2023/08/17 06:54:36;;;;;;;7.10;2.20;;;;;;;24.84;100.00;100215.60;105432;1267;70968;-75
2023/08/17 06:57:03;;;;;;;8.00;4.60;;;;;;;24.92;100.00;100214.81;105447;1267;72451;-75
2023/08/17 06:59:30;;;;;;;8.90;3.70;;;;;;;25.01;100.00;100212.41;105684;1267;61491;-76
2023/08/17 07:01:56;;;;;;;3.50;2.40;;;;;;;25.10;100.00;100210.60;105675;1267;61263;-74
2023/08/17 07:04:23;;;;;;;19.80;12.00;;;;;;;25.17;100.00;100208.87;105964;1267;74570;-74
2023/08/17 07:06:50;;;;;;;24.60;11.90;;;;;;;25.27;100.00;100206.13;105382;1267;71342;-75
2023/08/17 07:09:17;;;;;;;9.80;5.80;;;;;;;25.34;100.00;100203.19;105825;1267;72523;-75
2023/08/17 07:11:43;;;;;;;29.70;19.30;;;;;;;25.40;100.00;100204.64;105756;1267;61381;-74
2023/08/17 07:14:10;;;;;;;18.00;8.80;;;;;;;25.45;100.00;100197.75;105197;1271;61382;-75
2023/08/17 07:16:37;;;;;;;42.70;22.70;;;;;;;25.51;100.00;100193.84;105438;1271;74509;-76
2023/08/17 07:19:04;;;;;;;22.90;10.30;;;;;;;25.56;100.00;100194.13;105843;1267;70992;-75
2023/08/17 07:21:31;;;;;;;17.30;7.30;;;;;;;25.62;100.00;100192.15;105376;1267;72466;-75
2023/08/17 07:23:57;;;;;;;21.20;10.90;;;;;;;25.68;100.00;100188.98;105412;1267;61340;-75
2023/08/17 07:26:24;;;;;;;4.90;2.50;;;;;;;25.73;100.00;100191.27;105787;1267;61365;-75
2023/08/17 07:28:51;;;;;;;16.50;8.50;;;;;;;25.75;100.00;100187.42;105404;1267;74631;-74
2023/08/17 07:31:18;;;;;;;17.20;10.40;;;;;;;25.80;100.00;100183.42;105388;1267;61325;-74
2023/08/17 07:33:45;;;;;;;12.20;3.90;;;;;;;25.84;100.00;100188.96;105077;1271;70456;-75
2023/08/17 07:36:11;;;;;;;9.70;3.70;;;;;;;25.93;100.00;100186.80;105495;1267;60844;-74
2023/08/17 07:38:38;;;;;;;5.00;3.70;;;;;;;26.04;100.00;100190.83;105727;1267;61296;-75
2023/08/17 07:41:04;;;;;;;5.30;2.80;;;;;;;26.13;100.00;100191.33;105588;1267;75120;-75
2023/08/17 07:43:31;;;;;;;3.90;1.60;;;;;;;26.22;100.00;100194.09;105997;1267;70850;-76
2023/08/17 07:45:57;;;;;;;8.70;4.40;;;;;;;26.30;100.00;100188.04;105122;1267;61136;-75
2023/08/17 07:48:24;;;;;;;12.50;3.20;;;;;;;26.36;100.00;100194.11;105116;1267;62914;-75
2023/08/17 07:50:51;;;;;;;4.30;1.50;;;;;;;26.45;100.00;100189.35;105762;1267;61371;-74
2023/08/17 07:53:18;;;;;;;6.60;1.90;;;;;;;26.54;100.00;100188.34;105415;1267;74748;-74
2023/08/17 07:55:45;;;;;;;4.30;2.20;;;;;;;26.65;100.00;100192.23;105653;1267;69566;-74
2023/08/17 07:58:12;;;;;;;19.80;2.10;;;;;;;26.77;100.00;100194.08;105455;1267;71142;-74
2023/08/17 08:00:38;;;;;;;36.70;20.10;;;;;;;26.87;100.00;100194.20;105889;1269;61327;-76
2023/08/17 08:03:05;;;;;;;11.20;6.20;;;;;;;26.95;100.00;100196.90;105535;1271;61324;-74
2023/08/17 08:05:32;;;;;;;3.30;2.20;;;;;;;27.02;100.00;100191.52;105363;1267;74892;-79
2023/08/17 08:08:00;;;;;;;2.70;1.30;;;;;;;27.08;100.00;100190.13;105140;1267;71101;-75
2023/08/17 08:10:27;;;;;;;5.40;1.00;;;;;;;27.14;100.00;100184.71;105679;1267;71228;-76
2023/08/17 08:12:55;;;;;;;28.10;16.90;;;;;;;27.21;100.00;100190.02;106076;1268;61221;-76
2023/08/17 08:15:22;;;;;;;46.60;25.30;;;;;;;27.28;100.00;100189.32;105914;1267;61395;-74
2023/08/17 08:17:48;;;;;;;17.10;9.70;;;;;;;27.35;100.00;100186.69;105619;1267;74902;-75
2023/08/17 08:20:15;;;;;;;18.20;11.10;;;;;;;27.40;100.00;100181.19;105290;1267;61262;-75
2023/08/17 08:22:41;;;;;;;31.90;19.90;;;;;;;27.44;100.00;100187.09;106473;1271;72874;-75
2023/08/17 08:25:08;;;;;;;14.70;8.30;;;;;;;27.46;100.00;100179.35;105894;1267;61327;-75
2023/08/17 08:27:35;;;;;;;7.70;4.90;;;;;;;27.49;100.00;100182.55;105958;1270;61300;-75
2023/08/17 08:30:02;;;;;;;15.40;6.90;;;;;;;27.53;100.00;100182.89;105792;1271;74583;-74
2023/08/17 08:32:29;;;;;;;13.40;6.60;;;;;;;27.55;100.00;100181.23;105619;1267;71673;-75
2023/08/17 08:34:57;;;;;;;10.40;5.70;;;;;;;27.62;100.00;100183.97;106239;1267;71209;-76
2023/08/17 08:37:23;;;;;;;3.50;2.20;;;;;;;27.69;100.00;100181.53;105743;1267;61337;-75
2023/08/17 08:39:51;;;;;;;2.50;1.40;;;;;;;27.76;100.00;100182.64;105823;1271;61256;-75
2023/08/17 08:42:19;;;;;;;4.50;2.00;;;;;;;27.83;100.00;100181.73;105551;1271;73259;-76
2023/08/17 08:44:46;;;;;;;4.30;1.10;;;;;;;27.92;100.00;100181.97;106059;1267;70798;-76
2023/08/17 08:47:13;;;;;;;5.20;2.60;;;;;;;28.02;100.00;100179.04;105781;1268;72481;-75
2023/08/17 08:49:40;;;;;;;9.20;4.50;;;;;;;28.12;100.00;100175.23;105808;1267;61261;-74
2023/08/17 08:52:12;;;;;;;2.00;1.30;;;;;;;28.18;100.00;100173.16;105926;1271;61137;-76
2023/08/17 08:54:39;;;;;;;11.90;6.50;;;;;;;28.28;100.00;100170.21;106126;1267;64797;-75
2023/08/17 08:57:08;;;;;;;6.90;5.00;;;;;;;28.38;100.00;100173.70;105909;1267;71090;-75
2023/08/17 08:59:35;;;;;;;4.90;2.40;;;;;;;28.48;100.00;100176.31;106121;1267;71401;-75
2023/08/17 09:02:02;;;;;;;5.10;2.30;;;;;;;28.57;100.00;100173.52;106104;1267;61372;-75
2023/08/17 09:04:29;;;;;;;2.70;2.00;;;;;;;28.69;100.00;100172.35;105143;1267;61284;-76
2023/08/17 09:06:55;;;;;;;5.00;3.10;;;;;;;28.85;100.00;100172.15;105911;1267;65843;-75
2023/08/17 09:09:22;;;;;;;9.00;3.60;;;;;;;29.03;100.00;100173.42;105478;1267;62346;-75
2023/08/17 09:11:49;;;;;;;9.00;5.60;;;;;;;29.16;100.00;100169.56;105317;1271;63883;-76
2023/08/17 09:14:16;;;;;;;5.10;1.30;;;;;;;29.24;100.00;100170.51;105063;1270;61376;-75
2023/08/17 09:16:43;;;;;;;2.60;2.20;;;;;;;29.33;100.00;100166.78;105178;1268;61384;-75
2023/08/17 09:19:10;;;;;;;3.70;2.20;;;;;;;29.33;100.00;100166.55;105148;1269;65754;-75
2023/08/17 09:21:36;;;;;;;8.20;1.70;;;;;;;29.37;100.00;100163.29;105811;1272;61092;-75
2023/08/17 09:24:03;;;;;;;4.10;1.70;;;;;;;29.41;100.00;100155.79;105505;1267;63904;-75
2023/08/17 09:26:32;;;;;;;5.40;2.20;;;;;;;29.47;100.00;100154.67;105511;1267;61329;-74
2023/08/17 09:28:59;;;;;;;2.90;0.90;;;;;;;29.55;100.00;100155.98;105880;1267;61196;-75
2023/08/17 09:31:26;;;;;;;2.20;1.20;;;;;;;29.62;100.00;100150.70;106208;1271;65978;-75
2023/08/17 09:33:54;;;;;;;7.30;1.30;;;;;;;29.69;100.00;100153.85;105269;1267;62583;-75
2023/08/17 09:36:22;;;;;;;8.10;1.70;;;;;;;29.73;100.00;100156.21;105422;1273;64115;-76
2023/08/17 09:38:51;;;;;;;7.20;2.60;;;;;;;29.75;100.00;100154.08;105329;1267;61248;-75
2023/08/17 09:41:18;;;;;;;5.40;3.50;;;;;;;29.75;100.00;100152.02;105721;1271;61351;-76
2023/08/17 09:43:46;;;;;;;6.30;3.60;;;;;;;29.78;100.00;100151.76;105798;1267;65860;-75
2023/08/17 09:46:14;;;;;;;6.00;4.20;;;;;;;29.80;100.00;100154.50;105963;1267;62574;-79
2023/08/17 09:48:43;;;;;;;2.80;2.30;;;;;;;29.80;100.00;100154.84;105583;1268;64105;-75
2023/08/17 09:51:09;;;;;;;6.10;1.20;;;;;;;29.76;100.00;100150.54;105490;1268;61324;-76
2023/08/17 09:53:39;;;;;;;4.60;1.70;;;;;;;29.72;100.00;100149.65;105706;1267;61331;-75
2023/08/17 09:56:10;;;;;;;8.20;1.30;;;;;;;29.62;100.00;100151.36;105223;1267;64673;-75
2023/08/17 09:58:42;;;;;;;5.30;1.00;;;;;;;29.60;100.00;100149.27;105708;1267;61137;-75
2023/08/17 10:01:09;;;;;;;3.70;1.70;;;;;;;29.68;100.00;100142.17;105353;1267;63857;-75
2023/08/17 10:03:37;;;;;;;2.60;1.70;;;;;;;29.79;100.00;100140.28;105994;1267;61886;-75
2023/08/17 10:06:06;;;;;;;5.20;1.80;;;;;;;29.92;100.00;100134.23;105204;1273;61398;-76
2023/08/17 10:08:33;;;;;;;4.70;1.60;;;;;;;30.04;100.00;100134.73;106479;1267;66060;-75
2023/08/17 10:11:00;;;;;;;6.30;1.60;;;;;;;30.16;100.00;100133.99;105783;1267;61372;-75
2023/08/17 10:13:28;;;;;;;1.00;0.90;;;;;;;30.24;100.00;100133.10;105851;1267;61405;-75
2023/08/17 10:16:10;;;;;;;7.80;1.50;;;;;;;30.24;100.00;100132.11;105607;1269;61391;-76
2023/08/17 10:19:09;;;;;;;4.40;1.10;;;;;;;30.18;100.00;100127.08;105541;1267;61373;-76
2023/08/17 10:21:55;;;;;;;3.30;0.90;;;;;;;30.19;100.00;100124.64;105701;1268;66580;-75
2023/08/17 10:24:22;;;;;;;1.60;0.90;;;;;;;30.28;100.00;100125.30;105771;1267;62578;-75
2023/08/17 10:26:49;;;;;;;3.70;1.20;;;;;;;30.38;100.00;100124.20;105498;1269;63825;-75
2023/08/17 10:29:23;;;;;;;4.00;0.80;;;;;;;30.49;100.00;100125.42;105141;1267;61292;-75
2023/08/17 10:31:50;;;;;;;2.80;1.20;;;;;;;30.59;100.00;100127.35;105397;1267;61326;-74
2023/08/17 10:34:16;;;;;;;4.10;1.40;;;;;;;30.68;100.00;100125.42;105521;1267;64618;-75
2023/08/17 10:36:43;;;;;;;2.70;1.20;;;;;;;30.75;100.00;100122.95;105943;1267;62376;-76
2023/08/17 10:39:27;;;;;;;8.80;1.50;;;;;;;30.79;100.00;100120.91;105361;1271;63905;-75
2023/08/17 10:41:57;;;;;;;3.60;1.40;;;;;;;30.83;100.00;100118.64;105114;1271;61376;-76
2023/08/17 10:44:42;;;;;;;8.40;1.40;;;;;;;30.90;100.00;100118.36;105735;1273;61368;-76
2023/08/17 10:47:36;;;;;;;2.20;1.00;;;;;;;30.97;100.00;100118.04;105377;1266;66428;-75
2023/08/17 10:50:05;;;;;;;2.70;1.10;;;;;;;31.00;100.00;100117.64;105696;1268;70210;-76
2023/08/17 10:52:36;;;;;;;3.10;0.70;;;;;;;31.04;100.00;100114.34;105800;1271;64127;-77
2023/08/17 10:55:07;;;;;;;4.40;1.00;;;;;;;31.10;100.00;100117.21;106207;1267;61314;-76
2023/08/17 10:57:38;;;;;;;3.30;0.80;;;;;;;31.19;100.00;100110.68;105889;1267;61350;-76
2023/08/17 11:00:24;;;;;;;3.00;0.90;;;;;;;31.30;100.00;100109.27;105930;1271;65951;-76
2023/08/17 11:03:01;;;;;;;2.30;1.00;;;;;;;31.42;100.00;100106.37;105765;1268;63104;-75
2023/08/17 11:05:35;;;;;;;3.70;1.00;;;;;;;31.47;94.67;100103.33;105682;1267;64497;-76
2023/08/17 11:08:02;;;;;;;4.50;0.70;;;;;;;31.50;95.59;100102.63;105692;1269;61060;-75
2023/08/17 11:10:30;;;;;;;3.60;0.90;;;;;;;31.57;95.82;100095.86;105889;1267;61301;-74